TUCO2: Canadian River nr Tuttle 7ENE (Mustang)

                                SHEF ID:       TUCO2     Canadian River near Mustang, OK
STATION TYPE:
Regulating: Stage = 22.00, Flow = 9519

STAGE RIV-FLOW BAT-LOAD
ft cfs volt
Ccp-Rev Ccp-Rev Ccp-Rev
(America/Chicago)
06/18 00:00 12.73 873 12.65
06/18 01:00 12.78 890 12.65
06/18 02:00 12.76 883 12.57
06/18 03:00 12.73 873 12.57
06/18 04:00 12.74 876 12.57
06/18 05:00 12.77 887 12.57
06/18 06:00 12.78 890 12.57
06/18 07:00 12.92 940 12.57
06/18 08:00 12.95 951 12.49
06/18 09:00 12.99 966 12.57
06/18 10:00 13.04 984 12.57
06/18 11:00 13.13 1018 12.65
06/18 12:00 13.30 1084 12.81
06/18 13:00 13.39 1120 13.13
06/18 14:00 13.43 1136 13.29
06/18 15:00 13.47 1152 13.44
06/18 16:00 13.50 1164 13.37
06/18 17:00 13.53 1177 13.13
06/18 18:00 13.54 1181 12.89
06/18 19:00 13.48 1156 12.73
06/18 20:00 13.44 1140 12.73
06/18 21:00 13.41 1128 12.65
06/18 22:00 13.40 1124 12.65
06/18 23:00 13.37 1112 12.65
Data processed at Thu 19Jun2025 04:23 GMT

Parsing this webpage?

Checkout our new Data API! CWMSDataAPI (CDA)

Timeseries IDs (TSIDs)

TSIDs used from left to right in the data table
TUTL.Stage.Inst.1Hour.0.Ccp-Rev
TUTL.Flow.Inst.1Hour.0.Ccp-Rev
TUTL.Volt-Battery Load.Inst.1Hour.0.Ccp-Rev

                            

All information presented herein is the property of the government of the United States of America and may be revised or deleted at any time without prior notice. Dissemination of this information without the expressed written consent of the Public Affairs Office, Tulsa District U.S. Army Corps of Engineers is strictly prohibited. These data are gathered electronically and, as presented, have NOT undergone any form of quality control. These data are NOT guaranteed to be valid or correct.